Terminal Aerodrome Forecast
Issued by NWS

Home | Current Version | Previous Version | Text Only | Print | Product List | Glossary On
Versions: 1 2 3 4 5 6 7 8 9 10 11 12 13 14 15 16
000
FTUS45 KTFX 262333
TAFLWT
TAF
KLWT 262333Z 2700/2724 VRB06KT P6SM SCT025 BKN150
     FM270800 VRB06KT P6SM SCT025 OVC040 PROB30 2709/2712 6SM -SHRA
      BR BKN025
     FM271900 31006KT P6SM OVC050
      TEMPO 2720/2724 -TSRA BKN040CB=

USA.gov is the U.S. government's official web portal to all federal, state and local government web resources and services.